Sign in

Advertise on goboko.com

You can reach many thousands of active pilots each month by advertising on goboko.com.

Please contact us for details.

Advertising

Info

Aviation weather - KIAD

METAR KIAD 241952Z VRB06KT 10SM SCT034 BKN045 OVC200 24/16 A2991 RMK AO2 SLP127 T02440161

TAF KIAD 231735Z 2318/2424 21006KT P6SM SCT040 FM231900 22008KT P6SM BKN040 FM232000 22008KT P6SM VCTS BKN040CB FM232300 24006KT 6SM -TSRA BKN040CB FM240200 VRB03KT P6SM VCTS BKN040CB BKN080 FM240600 31004KT P6SM BKN040 BKN080 FM241200 35008KT P6SM BKN040 OVC080

ADDS Experimental. Do not use for flight-related decisions.

Javascript required. Ce site nécessite javascript